Time;durP1;ratioP1;P1;durP2;ratioP2;P2;SDS_P1;SDS_P2;PMS_P1;PMS_P2;Temp;Humidity;BMP_temperature;BMP_pressure;BME280_temperature;BME280_humidity;BME280_pressure;Samples;Min_cycle;Max_cycle;Signal;HPM_P1;HPM_P2
2023/02/23 00:00:34;;;;;;;39.15;25.00;;;9.90;99.90;;;;;;4993988;28;20027;-47
2023/02/23 00:03:01;;;;;;;42.40;26.58;;;9.90;99.90;;;;;;4993695;28;20536;-48
2023/02/23 00:05:28;;;;;;;40.72;26.25;;;9.90;99.90;;;;;;4993787;28;20041;-47
2023/02/23 00:07:54;;;;;;;39.35;25.55;;;9.90;99.90;;;;;;4993805;28;20077;-46
2023/02/23 00:10:20;;;;;;;51.05;25.90;;;9.90;99.90;;;;;;4993735;28;20242;-46
2023/02/23 00:12:50;;;;;;;44.63;27.33;;;10.00;99.90;;;;;;4993968;28;20483;-52
2023/02/23 00:15:15;;;;;;;40.25;27.33;;;10.00;99.90;;;;;;4993498;28;20105;-47
2023/02/23 00:17:41;;;;;;;41.10;26.27;;;10.00;99.90;;;;;;4991976;28;20117;-47
2023/02/23 00:20:10;;;;;;;41.72;26.48;;;9.90;99.90;;;;;;4992707;28;20034;-48
2023/02/23 00:22:38;;;;;;;42.22;25.85;;;9.90;99.90;;;;;;4991948;28;20125;-48
2023/02/23 00:25:07;;;;;;;42.83;26.10;;;9.90;99.90;;;;;;4993413;28;20081;-46
2023/02/23 00:27:35;;;;;;;39.10;26.58;;;10.00;99.90;;;;;;4993140;28;20454;-47
2023/02/23 00:30:00;;;;;;;45.47;26.77;;;9.90;99.90;;;;;;4993246;28;20018;-50
2023/02/23 00:32:26;;;;;;;42.70;26.35;;;9.90;99.90;;;;;;4993319;28;20039;-49
2023/02/23 00:34:53;;;;;;;44.40;26.98;;;9.90;99.90;;;;;;4992223;28;20516;-51
2023/02/23 00:37:20;;;;;;;47.53;29.00;;;9.90;99.90;;;;;;4992833;28;20041;-51
2023/02/23 00:39:46;;;;;;;40.47;26.55;;;9.80;99.90;;;;;;4993034;28;20105;-49
2023/02/23 00:42:12;;;;;;;43.38;28.20;;;9.80;99.90;;;;;;4992742;28;20094;-49
2023/02/23 00:44:39;;;;;;;45.75;27.65;;;9.80;99.90;;;;;;4992750;28;20106;-49
2023/02/23 00:47:05;;;;;;;49.60;27.40;;;9.80;99.90;;;;;;4992474;28;20038;-50
2023/02/23 00:49:31;;;;;;;82.78;51.17;;;9.80;99.90;;;;;;4992684;28;20050;-50
2023/02/23 00:51:57;;;;;;;55.15;33.95;;;9.80;99.90;;;;;;4992581;28;20042;-48
2023/02/23 00:54:22;;;;;;;43.42;27.70;;;9.80;99.90;;;;;;4992618;28;20479;-49
2023/02/23 00:56:48;;;;;;;46.00;28.17;;;9.80;99.90;;;;;;4991259;28;20475;-53
2023/02/23 00:59:14;;;;;;;47.63;28.48;;;9.70;99.90;;;;;;4992601;28;20092;-50
2023/02/23 01:01:40;;;;;;;43.20;28.90;;;9.70;99.90;;;;;;4992424;28;20490;-49
2023/02/23 01:04:06;;;;;;;49.22;29.77;;;9.70;99.90;;;;;;4992287;28;20065;-50
2023/02/23 01:06:33;;;;;;;45.88;29.33;;;9.70;99.90;;;;;;4992254;28;20088;-52
2023/02/23 01:09:03;;;;;;;44.38;30.23;;;9.70;99.90;;;;;;4992560;28;20029;-50
2023/02/23 01:11:32;;;;;;;47.80;29.95;;;9.70;99.90;;;;;;4992617;28;20026;-52
2023/02/23 01:13:59;;;;;;;46.38;29.15;;;9.70;99.90;;;;;;4992279;28;20375;-49
2023/02/23 01:16:30;;;;;;;41.58;30.02;;;9.70;99.90;;;;;;4992584;28;20129;-51
2023/02/23 01:18:57;;;;;;;53.58;30.50;;;9.70;99.90;;;;;;4992903;28;20033;-53
2023/02/23 01:21:34;;;;;;;49.08;31.35;;;9.70;99.90;;;;;;4992882;28;20085;-49
2023/02/23 01:24:01;;;;;;;46.08;30.13;;;9.60;99.90;;;;;;4991372;28;20026;-50
2023/02/23 01:26:36;;;;;;;43.53;28.98;;;9.70;99.90;;;;;;4992434;28;20445;-50
2023/02/23 01:29:07;;;;;;;49.75;29.25;;;9.60;99.90;;;;;;4993022;28;20080;-46
2023/02/23 01:31:33;;;;;;;48.50;30.38;;;9.60;99.90;;;;;;4992198;28;20034;-55
2023/02/23 01:34:01;;;;;;;49.17;29.90;;;9.60;99.90;;;;;;4991866;28;20026;-50
2023/02/23 01:36:28;;;;;;;44.70;30.17;;;9.70;99.90;;;;;;4992335;28;20548;-53
2023/02/23 01:38:55;;;;;;;46.15;29.75;;;9.70;99.90;;;;;;4992228;28;20038;-51
2023/02/23 01:41:21;;;;;;;49.35;30.05;;;9.70;99.90;;;;;;4992025;28;20026;-49
2023/02/23 01:43:59;;;;;;;43.60;30.23;;;9.70;99.90;;;;;;4991944;28;20058;-53
2023/02/23 01:46:25;;;;;;;45.20;29.23;;;9.70;99.90;;;;;;4993724;28;20034;-50
2023/02/23 01:48:55;;;;;;;47.33;29.60;;;9.70;99.90;;;;;;4996063;28;20367;-50
2023/02/23 01:51:22;;;;;;;44.20;28.40;;;9.70;99.90;;;;;;4996435;28;20019;-51
2023/02/23 01:53:55;;;;;;;46.92;29.40;;;9.60;99.90;;;;;;4995737;28;20398;-49
2023/02/23 01:56:26;;;;;;;43.03;31.02;;;9.70;99.90;;;;;;4996158;28;20029;-49
2023/02/23 01:58:56;;;;;;;43.22;29.73;;;9.70;99.90;;;;;;4995698;28;20053;-49
2023/02/23 02:01:22;;;;;;;46.22;31.13;;;9.70;99.90;;;;;;4995861;28;20041;-51
2023/02/23 02:03:53;;;;;;;45.75;29.92;;;9.70;99.90;;;;;;4995691;28;20031;-52
2023/02/23 02:06:22;;;;;;;41.40;28.90;;;9.70;99.90;;;;;;4995686;28;20528;-51
2023/02/23 02:08:53;;;;;;;47.45;29.67;;;9.70;99.90;;;;;;4995729;28;20037;-48
2023/02/23 02:11:29;;;;;;;43.92;29.95;;;9.70;99.90;;;;;;4995823;28;20494;-48
2023/02/23 02:14:11;;;;;;;45.63;29.77;;;9.70;99.90;;;;;;4995436;28;20026;-53
2023/02/23 02:17:08;;;;;;;46.10;30.75;;;9.70;99.90;;;;;;4995398;28;20080;-52
2023/02/23 02:20:05;;;;;;;46.83;31.48;;;9.70;99.90;;;;;;4995601;28;20030;-52
2023/02/23 02:23:03;;;;;;;44.15;29.80;;;9.70;99.90;;;;;;4995410;28;20034;-53
2023/02/23 02:25:46;;;;;;;51.67;31.90;;;9.70;99.90;;;;;;4995371;28;20050;-49
2023/02/23 02:28:28;;;;;;;55.63;30.40;;;9.70;99.90;;;;;;4995483;28;20030;-50
2023/02/23 02:31:37;;;;;;;43.45;29.00;;;9.80;99.90;;;;;;4995331;28;20019;-50
2023/02/23 02:34:56;;;;;;;54.45;31.50;;;9.70;99.90;;;;;;4994920;28;20341;-50
2023/02/23 02:37:55;;;;;;;50.25;32.03;;;9.70;99.90;;;;;;4954339;29;20035;-51
2023/02/23 02:40:24;;;;;;;48.17;31.50;;;9.70;99.90;;;;;;4994060;28;20019;-48
2023/02/23 02:43:13;;;;;;;52.03;33.67;;;9.70;99.90;;;;;;4995009;28;20445;-51
2023/02/23 02:45:42;;;;;;;50.70;31.60;;;9.70;99.90;;;;;;4994819;28;20515;-49
2023/02/23 02:48:26;;;;;;;48.25;32.55;;;9.80;99.90;;;;;;4994908;28;20438;-51
2023/02/23 02:51:08;;;;;;;52.33;33.97;;;9.80;99.90;;;;;;4994979;28;20052;-50
2023/02/23 02:53:59;;;;;;;55.05;34.08;;;9.80;99.90;;;;;;4995264;28;20026;-54
2023/02/23 02:56:25;;;;;;;53.55;33.78;;;9.80;99.90;;;;;;4994799;28;20022;-52
2023/02/23 02:58:52;;;;;;;58.58;35.53;;;9.80;99.90;;;;;;4994179;28;20474;-50
2023/02/23 04:19:27;;;;;;;65.13;41.28;;;9.70;99.90;;;;;;4993495;28;20030;-48
2023/02/23 04:21:52;;;;;;;62.97;39.80;;;9.70;99.90;;;;;;4993135;28;20394;-49
2023/02/23 04:24:18;;;;;;;60.15;39.08;;;9.80;99.90;;;;;;4992995;28;20030;-49
2023/02/23 04:26:43;;;;;;;68.57;41.22;;;9.80;99.90;;;;;;4993331;28;20038;-53
2023/02/23 04:29:11;;;;;;;67.40;42.03;;;9.80;99.90;;;;;;4993365;28;20030;-49
2023/02/23 04:31:36;;;;;;;70.57;42.22;;;9.70;99.90;;;;;;4993007;28;20022;-52
2023/02/23 04:34:03;;;;;;;62.75;39.60;;;9.70;99.90;;;;;;4992513;28;20076;-50
2023/02/23 04:36:29;;;;;;;63.80;40.58;;;9.70;99.90;;;;;;4992937;28;20046;-51
2023/02/23 04:38:54;;;;;;;71.25;42.13;;;9.70;99.90;;;;;;4991804;28;20598;-52
2023/02/23 04:41:20;;;;;;;65.95;41.55;;;9.70;99.90;;;;;;4992706;28;20505;-52
2023/02/23 04:43:45;;;;;;;67.10;40.25;;;9.70;99.90;;;;;;4992840;28;20033;-53
2023/02/23 04:46:11;;;;;;;70.13;41.88;;;9.70;99.90;;;;;;4992739;28;20113;-48
2023/02/23 04:48:36;;;;;;;64.90;41.05;;;9.70;99.90;;;;;;4992577;28;20037;-51
2023/02/23 04:51:02;;;;;;;67.63;42.30;;;9.70;99.90;;;;;;4992947;28;20036;-51
2023/02/23 04:53:27;;;;;;;60.25;39.45;;;9.70;99.90;;;;;;4992931;28;20027;-51
2023/02/23 04:55:53;;;;;;;70.80;41.15;;;9.70;99.90;;;;;;4992089;28;20027;-49
2023/02/23 04:58:19;;;;;;;64.35;40.10;;;9.70;99.90;;;;;;4992439;28;20081;-53
2023/02/23 05:00:44;;;;;;;62.47;40.55;;;9.70;99.90;;;;;;4992538;28;20038;-53
2023/02/23 05:03:11;;;;;;;64.90;39.75;;;9.70;99.90;;;;;;4992864;28;20030;-50
2023/02/23 05:05:36;;;;;;;66.80;42.03;;;9.70;99.90;;;;;;4992193;28;20034;-51
2023/02/23 05:08:02;;;;;;;64.93;40.90;;;9.70;99.90;;;;;;4992298;28;20076;-51
2023/02/23 05:10:28;;;;;;;59.35;39.45;;;9.70;99.90;;;;;;4992211;28;20509;-51
2023/02/23 05:12:54;;;;;;;67.30;41.88;;;9.70;99.90;;;;;;4992192;28;20030;-51
2023/02/23 05:15:19;;;;;;;67.03;41.50;;;9.70;99.90;;;;;;4992101;28;20030;-53
2023/02/23 05:17:45;;;;;;;72.72;42.35;;;9.70;99.90;;;;;;4992201;28;20026;-55
2023/02/23 05:20:12;;;;;;;74.45;40.50;;;9.70;99.90;;;;;;4991983;28;20049;-52
2023/02/23 05:22:38;;;;;;;64.00;40.15;;;9.80;99.90;;;;;;4992059;28;20086;-53
2023/02/23 05:25:05;;;;;;;64.72;39.70;;;9.90;99.90;;;;;;4991975;28;20030;-54
2023/02/23 05:27:31;;;;;;;63.90;40.20;;;9.90;99.90;;;;;;4992033;28;20022;-50
2023/02/23 05:29:57;;;;;;;64.53;39.63;;;9.80;99.90;;;;;;4992186;28;20041;-50
2023/02/23 05:32:22;;;;;;;62.35;39.50;;;9.80;99.90;;;;;;4992088;28;20458;-53
2023/02/23 05:34:48;;;;;;;62.25;39.67;;;9.70;99.90;;;;;;4991683;28;20379;-49
2023/02/23 05:37:14;;;;;;;67.30;40.50;;;9.70;99.90;;;;;;4991789;28;20035;-51
2023/02/23 05:39:39;;;;;;;67.93;40.40;;;9.70;99.90;;;;;;4991752;28;20030;-53
2023/02/23 05:42:05;;;;;;;63.58;42.58;;;9.70;99.90;;;;;;4990653;28;20027;-54
2023/02/23 05:44:30;;;;;;;63.53;41.50;;;9.70;99.90;;;;;;4991887;28;20033;-54
2023/02/23 05:46:56;;;;;;;66.57;41.03;;;9.80;99.90;;;;;;4990477;28;20029;-52
2023/02/23 05:49:21;;;;;;;59.33;40.17;;;9.80;99.90;;;;;;4991698;28;20062;-51
2023/02/23 05:51:47;;;;;;;68.63;41.50;;;9.80;99.90;;;;;;4991596;28;20446;-55
2023/02/23 05:54:12;;;;;;;59.75;39.05;;;9.80;99.90;;;;;;4991515;28;20363;-53
2023/02/23 05:56:40;;;;;;;66.15;39.72;;;9.80;99.90;;;;;;4990567;28;20019;-49
2023/02/23 05:59:05;;;;;;;65.43;38.55;;;9.80;99.90;;;;;;4991861;28;20146;-55
2023/02/23 06:01:31;;;;;;;81.55;43.13;;;9.80;99.90;;;;;;4991896;28;20141;-50
2023/02/23 06:03:56;;;;;;;69.85;42.72;;;9.80;99.90;;;;;;4992128;28;20037;-48
2023/02/23 06:06:24;;;;;;;65.07;39.60;;;9.80;99.90;;;;;;4991730;28;20113;-49
2023/02/23 06:08:50;;;;;;;69.35;40.00;;;9.80;99.90;;;;;;4991707;28;20019;-48
2023/02/23 06:11:15;;;;;;;73.90;41.63;;;9.80;99.90;;;;;;4991839;28;20027;-49
2023/02/23 06:13:41;;;;;;;67.55;40.25;;;9.80;99.90;;;;;;4990296;28;20509;-48
2023/02/23 06:16:07;;;;;;;68.63;40.50;;;9.80;99.90;;;;;;4991815;28;20038;-48
2023/02/23 06:18:33;;;;;;;67.82;41.15;;;9.90;99.90;;;;;;4991573;28;20080;-50
2023/02/23 06:20:59;;;;;;;68.63;40.35;;;9.80;99.90;;;;;;4991614;28;20034;-53
2023/02/23 06:23:26;;;;;;;72.22;42.30;;;9.90;99.90;;;;;;4991430;28;20027;-48
2023/02/23 06:25:51;;;;;;;65.20;42.13;;;9.90;99.90;;;;;;4991247;28;20073;-49
2023/02/23 06:28:17;;;;;;;76.40;43.92;;;9.80;99.90;;;;;;4991529;28;20499;-50
2023/02/23 06:30:43;;;;;;;81.22;41.50;;;9.90;99.90;;;;;;4991465;28;20026;-48
2023/02/23 06:33:08;;;;;;;72.40;41.72;;;9.80;99.90;;;;;;4992715;28;20544;-49
2023/02/23 06:35:34;;;;;;;73.43;44.00;;;9.80;99.90;;;;;;4995014;28;20038;-52
2023/02/23 06:38:00;;;;;;;77.18;43.00;;;9.80;99.90;;;;;;4995324;28;20109;-48
2023/02/23 06:40:25;;;;;;;70.45;42.60;;;9.70;99.90;;;;;;4995025;28;20034;-48
2023/02/23 06:42:51;;;;;;;69.50;41.35;;;9.70;99.90;;;;;;4994758;28;20030;-52
2023/02/23 06:45:18;;;;;;;74.47;43.00;;;9.70;99.90;;;;;;4994795;28;20066;-48
2023/02/23 06:47:44;;;;;;;82.53;44.67;;;9.70;99.90;;;;;;4994663;28;20026;-48
2023/02/23 06:50:10;;;;;;;74.15;43.28;;;9.70;99.90;;;;;;4994740;28;20018;-48
2023/02/23 06:52:36;;;;;;;78.05;43.30;;;9.60;99.90;;;;;;4994581;28;20068;-48
2023/02/23 06:55:02;;;;;;;77.43;44.72;;;9.60;99.90;;;;;;4994682;28;20105;-48
2023/02/23 06:57:27;;;;;;;76.97;43.42;;;9.70;99.90;;;;;;4994778;28;20157;-50
2023/02/23 06:59:53;;;;;;;78.70;42.22;;;9.70;99.90;;;;;;4994902;28;20018;-51
2023/02/23 07:02:18;;;;;;;75.05;41.25;;;9.60;99.90;;;;;;4994619;28;20030;-48
2023/02/23 07:04:44;;;;;;;76.65;43.17;;;9.70;99.90;;;;;;4994756;28;20027;-47
2023/02/23 07:07:11;;;;;;;71.95;43.33;;;9.80;99.90;;;;;;4994680;28;20018;-47
2023/02/23 07:09:39;;;;;;;83.53;43.47;;;9.70;99.90;;;;;;4994840;28;20496;-47
2023/02/23 07:12:04;;;;;;;80.53;44.70;;;9.70;99.90;;;;;;4994933;28;20037;-46
2023/02/23 07:14:30;;;;;;;78.10;42.63;;;9.70;99.90;;;;;;4994548;28;20026;-53
2023/02/23 07:16:55;;;;;;;72.78;42.95;;;9.80;99.90;;;;;;4994141;28;20486;-51
2023/02/23 07:19:22;;;;;;;74.22;44.08;;;9.80;99.90;;;;;;4994457;28;20033;-49
2023/02/23 07:21:47;;;;;;;75.63;44.22;;;9.80;99.90;;;;;;4994489;28;20054;-49
2023/02/23 07:24:13;;;;;;;69.57;43.08;;;9.90;99.90;;;;;;4994363;28;20560;-49
2023/02/23 07:26:39;;;;;;;67.80;40.35;;;9.90;99.90;;;;;;4994120;28;20033;-48
2023/02/23 07:29:05;;;;;;;81.95;42.63;;;9.90;99.90;;;;;;4994213;28;20113;-50
2023/02/23 07:31:31;;;;;;;68.88;40.45;;;9.90;99.90;;;;;;4994169;28;20102;-50
2023/02/23 07:33:56;;;;;;;80.70;40.92;;;9.90;99.90;;;;;;4993672;28;20030;-52
2023/02/23 07:36:23;;;;;;;68.60;40.75;;;9.90;99.90;;;;;;4993864;28;20033;-53
2023/02/23 07:38:49;;;;;;;71.10;41.35;;;10.00;99.90;;;;;;4992646;28;20030;-52
2023/02/23 07:41:14;;;;;;;69.57;40.38;;;10.00;99.90;;;;;;4993934;28;20062;-50
2023/02/23 07:43:40;;;;;;;68.03;41.70;;;10.00;99.90;;;;;;4993515;28;20513;-49
2023/02/23 07:46:07;;;;;;;75.75;43.55;;;10.10;99.90;;;;;;4993945;28;20148;-52
2023/02/23 07:48:33;;;;;;;72.25;41.03;;;10.20;99.90;;;;;;4993761;28;20026;-47
2023/02/23 07:50:58;;;;;;;67.65;41.80;;;10.20;99.90;;;;;;4993946;28;20097;-48
2023/02/23 07:53:26;;;;;;;73.10;43.78;;;10.30;99.90;;;;;;4993912;28;20043;-47
2023/02/23 07:56:00;;;;;;;83.05;43.72;;;10.30;99.90;;;;;;4993704;28;20097;-50
2023/02/23 07:58:26;;;;;;;69.82;43.17;;;10.30;99.90;;;;;;4992299;28;20030;-49
2023/02/23 08:00:51;;;;;;;71.90;40.65;;;10.30;99.90;;;;;;4993726;28;20026;-52
2023/02/23 08:03:17;;;;;;;70.93;40.65;;;10.30;99.90;;;;;;4993434;28;20091;-45
2023/02/23 08:05:44;;;;;;;65.75;40.13;;;10.40;99.90;;;;;;4992002;28;20390;-50
2023/02/23 08:08:10;;;;;;;69.38;41.13;;;10.30;99.90;;;;;;4992405;28;20081;-53
2023/02/23 08:10:36;;;;;;;66.45;40.80;;;10.30;99.90;;;;;;4993628;28;20026;-51
2023/02/23 08:13:02;;;;;;;67.18;40.72;;;10.30;99.90;;;;;;4993768;28;20014;-51
2023/02/23 08:15:28;;;;;;;72.95;40.83;;;10.30;99.90;;;;;;4993266;28;20540;-53
2023/02/23 08:17:53;;;;;;;70.93;39.90;;;10.30;99.90;;;;;;4993158;28;20027;-52
2023/02/23 08:20:19;;;;;;;69.93;39.70;;;10.40;99.90;;;;;;4993502;28;20114;-48
2023/02/23 08:22:44;;;;;;;61.83;40.42;;;10.40;99.90;;;;;;4993001;28;20105;-49
2023/02/23 08:25:10;;;;;;;61.20;37.33;;;10.40;99.90;;;;;;4993007;28;20533;-52
2023/02/23 08:27:37;;;;;;;67.45;38.58;;;10.40;99.90;;;;;;4993012;28;20038;-49
2023/02/23 08:30:04;;;;;;;67.25;37.72;;;10.50;99.90;;;;;;4993215;28;20064;-53
2023/02/23 08:32:36;;;;;;;71.25;38.50;;;10.50;99.90;;;;;;4992746;28;20037;-52
2023/02/23 08:35:01;;;;;;;59.92;38.13;;;10.50;99.90;;;;;;4992454;28;20031;-48
2023/02/23 08:37:30;;;;;;;68.15;37.28;;;10.60;99.90;;;;;;4992503;28;20441;-51
2023/02/23 08:39:56;;;;;;;67.18;38.15;;;10.60;99.90;;;;;;4992899;28;20505;-49
2023/02/23 08:42:22;;;;;;;69.80;39.33;;;10.50;99.90;;;;;;4992835;28;20018;-50
2023/02/23 08:44:50;;;;;;;63.83;40.35;;;10.50;99.90;;;;;;4992813;28;20045;-52
2023/02/23 08:47:22;;;;;;;57.38;36.13;;;10.50;99.90;;;;;;4992696;28;20030;-52
2023/02/23 08:49:49;;;;;;;56.28;35.70;;;10.50;99.90;;;;;;4992918;28;20037;-50
2023/02/23 08:52:15;;;;;;;56.53;35.83;;;10.60;99.90;;;;;;4992512;28;20402;-51
2023/02/23 08:54:40;;;;;;;58.42;37.17;;;10.60;99.90;;;;;;4992680;28;20034;-51
2023/02/23 08:57:06;;;;;;;61.47;37.28;;;10.70;99.90;;;;;;4992202;28;20065;-49
2023/02/23 08:59:31;;;;;;;59.95;36.13;;;10.70;99.90;;;;;;4992658;28;20023;-53
2023/02/23 09:01:57;;;;;;;63.05;36.20;;;10.70;99.90;;;;;;4992556;28;20101;-51
2023/02/23 09:04:22;;;;;;;54.20;34.22;;;10.70;99.90;;;;;;4991266;28;20061;-54
2023/02/23 09:06:49;;;;;;;54.40;33.90;;;10.70;99.90;;;;;;4992553;28;20105;-52
2023/02/23 09:09:15;;;;;;;54.15;34.83;;;10.80;99.90;;;;;;4992480;28;20125;-50
2023/02/23 09:11:41;;;;;;;62.55;35.50;;;10.80;99.90;;;;;;4992390;28;20034;-49
2023/02/23 09:14:07;;;;;;;53.50;32.95;;;10.80;99.90;;;;;;4991106;28;20504;-47
2023/02/23 09:16:34;;;;;;;54.15;31.60;;;10.90;99.90;;;;;;4989318;28;20068;-48
2023/02/23 09:19:00;;;;;;;54.78;33.80;;;11.10;99.90;;;;;;4984780;28;20027;-51
2023/02/23 09:21:28;;;;;;;52.13;31.02;;;11.20;99.90;;;;;;4974962;28;20046;-51
2023/02/23 09:23:55;;;;;;;49.00;32.38;;;11.20;99.90;;;;;;4991947;28;20022;-55
2023/02/23 09:26:22;;;;;;;47.70;29.15;;;11.40;99.90;;;;;;4973107;28;20026;-56
2023/02/23 09:28:48;;;;;;;43.33;28.25;;;11.50;99.90;;;;;;4972844;28;20033;-49
2023/02/23 09:31:16;;;;;;;52.53;27.17;;;11.80;99.90;;;;;;4972478;28;20031;-53
2023/02/23 09:33:42;;;;;;;45.25;27.55;;;12.00;99.90;;;;;;4979547;28;20112;-55
2023/02/23 09:36:15;;;;;;;38.63;26.48;;;12.20;99.90;;;;;;4980217;28;20059;-53
2023/02/23 09:38:41;;;;;;;40.65;25.60;;;12.30;99.90;;;;;;4971826;28;20027;-56
2023/02/23 09:41:26;;;;;;;39.05;25.90;;;12.30;99.90;;;;;;4979300;28;20034;-56
2023/02/23 09:44:02;;;;;;;54.88;26.40;;;12.20;99.90;;;;;;4991476;28;20498;-51
2023/02/23 09:46:45;;;;;;;59.55;25.23;;;12.20;99.90;;;;;;4992134;28;20538;-54
2023/02/23 09:49:15;;;;;;;60.03;25.35;;;12.10;99.90;;;;;;4992237;28;20379;-53
2023/02/23 09:51:47;;;;;;;42.33;25.10;;;12.30;99.90;;;;;;4992258;28;20113;-51
2023/02/23 09:54:15;;;;;;;37.88;23.60;;;12.60;99.90;;;;;;4992365;28;20502;-49
2023/02/23 09:56:46;;;;;;;36.30;22.33;;;13.20;99.90;;;;;;4992121;28;20034;-52
2023/02/23 09:59:17;;;;;;;31.77;21.52;;;13.50;99.90;;;;;;4992386;28;20058;-55
2023/02/23 10:01:52;;;;;;;30.38;21.67;;;13.70;99.90;;;;;;4992278;28;20034;-51
2023/02/23 10:04:31;;;;;;;31.60;21.33;;;13.60;99.90;;;;;;4991952;28;20372;-53
2023/02/23 10:07:24;;;;;;;29.77;19.85;;;13.60;99.90;;;;;;4993391;28;20279;-55
2023/02/23 10:10:16;;;;;;;33.00;19.73;;;13.50;99.90;;;;;;4996186;28;20037;-54
2023/02/23 10:12:48;;;;;;;30.33;21.08;;;13.40;99.90;;;;;;4995976;28;20034;-52
2023/02/23 10:15:34;;;;;;;28.00;19.75;;;13.20;99.90;;;;;;4995895;28;20566;-53
2023/02/23 10:18:33;;;;;;;27.48;19.42;;;13.20;99.90;;;;;;4995748;28;20019;-50
2023/02/23 10:21:22;;;;;;;29.48;19.67;;;13.00;99.90;;;;;;4995459;28;20092;-51
2023/02/23 10:23:56;;;;;;;27.30;18.90;;;12.90;99.90;;;;;;4995709;28;20014;-49
2023/02/23 10:26:24;;;;;;;27.98;18.58;;;12.80;99.90;;;;;;4995154;28;20032;-55
2023/02/23 10:28:54;;;;;;;24.67;17.15;;;12.90;99.90;;;;;;4984252;28;20438;-52
2023/02/23 10:31:44;;;;;;;30.75;19.42;;;12.80;99.90;;;;;;4994109;28;20478;-52
2023/02/23 10:34:16;;;;;;;23.20;17.25;;;12.90;99.90;;;;;;4980255;28;20041;-52
2023/02/23 10:36:54;;;;;;;25.98;19.15;;;13.10;99.90;;;;;;4975965;28;20550;-55
2023/02/23 10:39:19;;;;;;;26.55;18.70;;;13.20;99.90;;;;;;4976004;28;20031;-54
2023/02/23 10:41:45;;;;;;;27.17;17.95;;;13.30;99.90;;;;;;4982433;28;20027;-53
2023/02/23 10:44:18;;;;;;;25.90;17.00;;;13.70;99.90;;;;;;4992589;28;20037;-54
2023/02/23 10:46:48;;;;;;;21.73;15.63;;;14.10;99.90;;;;;;4989283;28;20035;-51
2023/02/23 10:49:21;;;;;;;22.45;14.88;;;14.30;99.90;;;;;;4991957;28;20081;-53
2023/02/23 10:51:47;;;;;;;22.77;15.00;;;14.50;99.90;;;;;;4994613;28;20050;-54
2023/02/23 10:54:36;;;;;;;25.50;15.63;;;14.50;99.90;;;;;;4991345;28;20022;-53
2023/02/23 10:57:04;;;;;;;19.92;14.65;;;14.60;99.90;;;;;;4976473;28;20565;-53
2023/02/23 10:59:30;;;;;;;21.73;13.00;;;15.00;99.90;;;;;;4980882;28;20030;-50
2023/02/23 11:01:56;;;;;;;20.45;13.70;;;15.10;99.90;;;;;;4994976;28;20030;-52
2023/02/23 11:04:26;;;;;;;24.45;11.70;;;15.00;99.90;;;;;;4995121;28;20030;-48
2023/02/23 11:07:10;;;;;;;14.48;10.95;;;14.80;99.90;;;;;;4994873;28;20089;-50
2023/02/23 11:09:36;;;;;;;36.10;18.00;;;14.30;99.90;;;;;;4994692;28;20036;-50
2023/02/23 11:12:15;;;;;;;18.40;13.02;;;14.10;99.90;;;;;;4986214;28;20141;-48
2023/02/23 11:14:41;;;;;;;25.95;12.20;;;13.90;99.90;;;;;;4975419;28;20051;-50
2023/02/23 11:17:22;;;;;;;20.10;12.80;;;13.80;99.90;;;;;;4975167;28;20058;-49
2023/02/23 11:19:48;;;;;;;19.40;14.60;;;13.80;99.90;;;;;;4974235;28;20038;-49
2023/02/23 11:22:22;;;;;;;17.08;13.20;;;13.80;99.90;;;;;;4987998;28;20474;-48
2023/02/23 11:24:48;;;;;;;15.25;12.18;;;14.00;99.90;;;;;;5013917;28;20080;-48
2023/02/23 11:27:23;;;;;;;22.23;13.00;;;14.00;99.90;;;;;;5013851;28;20534;-48
2023/02/23 11:29:52;;;;;;;21.33;11.73;;;14.20;99.90;;;;;;5007083;28;20057;-51
2023/02/23 11:32:30;;;;;;;17.17;11.30;;;14.40;99.90;;;;;;4991682;28;20030;-49
2023/02/23 11:35:25;;;;;;;14.40;10.43;;;14.60;99.90;;;;;;5010658;28;20034;-51
2023/02/23 11:37:51;;;;;;;12.55;9.75;;;14.70;99.90;;;;;;5014932;28;20022;-52
2023/02/23 11:40:26;;;;;;;13.30;7.53;;;14.80;99.90;;;;;;5005187;28;20081;-51
2023/02/23 11:42:55;;;;;;;12.02;7.05;;;14.60;99.90;;;;;;4994960;28;20491;-51
2023/02/23 11:45:26;;;;;;;10.00;6.47;;;14.70;99.90;;;;;;4994185;28;20045;-54
2023/02/23 11:47:55;;;;;;;6.28;5.35;;;14.70;99.90;;;;;;4990117;28;20061;-54
2023/02/23 11:50:34;;;;;;;8.95;4.32;;;14.60;99.90;;;;;;4987992;28;20058;-50
2023/02/23 11:53:14;;;;;;;4.10;3.10;;;14.60;99.90;;;;;;4992398;28;20499;-52
2023/02/23 11:55:45;;;;;;;5.47;3.42;;;14.60;99.90;;;;;;4993859;28;20037;-51
2023/02/23 11:58:34;;;;;;;10.32;4.60;;;14.60;99.90;;;;;;4993779;28;20026;-53
2023/02/23 12:01:11;;;;;;;6.85;4.38;;;14.50;99.90;;;;;;4994166;28;20026;-53
2023/02/23 12:03:42;;;;;;;9.95;4.97;;;14.40;99.90;;;;;;4993545;28;20072;-54
2023/02/23 12:06:09;;;;;;;10.38;5.55;;;14.30;99.90;;;;;;4993457;28;20041;-54
2023/02/23 12:08:47;;;;;;;7.18;5.38;;;14.20;99.90;;;;;;4993553;28;20056;-55
2023/02/23 12:11:22;;;;;;;10.32;7.78;;;14.20;99.90;;;;;;4992660;28;20022;-53
2023/02/23 12:14:07;;;;;;;9.18;5.75;;;14.20;99.90;;;;;;4993203;28;20449;-51
2023/02/23 12:16:40;;;;;;;11.95;6.57;;;14.20;99.90;;;;;;4993349;28;20375;-48
2023/02/23 12:19:23;;;;;;;9.70;6.30;;;14.10;99.90;;;;;;4993470;28;20044;-50
2023/02/23 12:22:14;;;;;;;10.40;7.03;;;14.10;99.90;;;;;;4993289;28;20582;-51
2023/02/23 12:25:03;;;;;;;11.63;6.50;;;14.00;99.90;;;;;;4992042;28;20041;-50
2023/02/23 12:27:41;;;;;;;15.73;7.25;;;14.00;99.90;;;;;;4993609;28;20109;-49
2023/02/23 12:30:26;;;;;;;10.45;7.10;;;14.00;99.90;;;;;;4993171;28;20030;-48
2023/02/23 12:33:02;;;;;;;10.82;7.70;;;13.90;99.90;;;;;;5013814;23;20521;-48
2023/02/23 12:35:54;;;;;;;12.25;8.02;;;13.90;99.90;;;;;;4993283;28;20456;-44
2023/02/23 12:38:49;;;;;;;15.30;7.50;;;13.90;99.90;;;;;;4985147;28;20038;-44
2023/02/23 12:41:40;;;;;;;10.93;7.05;;;13.80;99.90;;;;;;4993172;28;20088;-49
2023/02/23 12:44:16;;;;;;;14.93;7.68;;;13.60;99.90;;;;;;4962585;28;20082;-46
2023/02/23 12:46:47;;;;;;;17.35;7.97;;;13.60;99.90;;;;;;4993636;28;20509;-44
2023/02/23 12:49:26;;;;;;;10.55;7.28;;;13.60;99.90;;;;;;4992968;28;20517;-45
2023/02/23 12:51:56;;;;;;;13.90;7.95;;;13.60;99.90;;;;;;4991427;28;20409;-45
2023/02/23 12:54:21;;;;;;;11.60;7.72;;;13.60;99.90;;;;;;4991366;28;20023;-49
2023/02/23 12:56:47;;;;;;;10.45;8.05;;;13.70;99.90;;;;;;4992675;28;20037;-47
2023/02/23 12:59:34;;;;;;;9.95;7.35;;;13.60;99.90;;;;;;4991607;28;20030;-48
2023/02/23 13:02:21;;;;;;;7.50;6.53;;;13.60;99.90;;;;;;4992411;28;20023;-45
2023/02/23 13:05:02;;;;;;;13.30;6.75;;;13.70;99.90;;;;;;4992372;28;20030;-44
2023/02/23 13:07:41;;;;;;;8.13;6.82;;;13.80;99.90;;;;;;4991426;28;20049;-48
2023/02/23 13:10:25;;;;;;;11.32;7.18;;;13.80;99.90;;;;;;4992883;28;20471;-47
2023/02/23 13:13:15;;;;;;;9.75;6.65;;;13.70;99.90;;;;;;4992176;28;20022;-47
2023/02/23 13:15:58;;;;;;;8.88;6.93;;;13.80;99.90;;;;;;4992080;28;20018;-47
2023/02/23 13:18:44;;;;;;;7.95;6.13;;;13.90;99.90;;;;;;4992859;28;20027;-47
2023/02/23 13:21:31;;;;;;;8.68;7.13;;;13.90;99.90;;;;;;4992255;28;20101;-47
2023/02/23 13:24:18;;;;;;;8.95;5.90;;;14.00;99.90;;;;;;4992576;28;20117;-49
2023/02/23 13:27:08;;;;;;;8.18;6.30;;;14.10;99.90;;;;;;4993263;28;20394;-47
2023/02/23 13:29:39;;;;;;;13.55;8.07;;;14.00;99.90;;;;;;4992544;28;20537;-48
2023/02/23 13:32:12;;;;;;;9.55;6.65;;;14.10;99.90;;;;;;4992194;28;20070;-39
2023/02/23 13:34:43;;;;;;;125.72;16.23;;;14.00;99.90;;;;;;4991925;28;20026;-43
2023/02/23 13:37:12;;;;;;;19.10;7.82;;;14.10;99.90;;;;;;4991889;28;20026;-46
2023/02/23 13:39:47;;;;;;;11.38;6.72;;;14.10;99.90;;;;;;4992407;28;20030;-47
2023/02/23 13:42:35;;;;;;;19.05;7.50;;;14.20;99.90;;;;;;4991669;28;20027;-46
2023/02/23 13:45:30;;;;;;;9.02;7.70;;;14.20;99.90;;;;;;4992252;28;20494;-48
2023/02/23 13:48:30;;;;;;;11.45;7.10;;;14.10;99.90;;;;;;4991862;28;20165;-44
2023/02/23 13:51:13;;;;;;;9.82;7.22;;;14.00;99.90;;;;;;4992104;28;20027;-46
2023/02/23 13:53:45;;;;;;;10.77;7.38;;;14.00;99.90;;;;;;4992900;28;20026;-48
2023/02/23 13:56:17;;;;;;;9.38;7.90;;;14.00;99.90;;;;;;4991863;28;20022;-42
2023/02/23 13:58:51;;;;;;;11.38;7.68;;;14.10;99.90;;;;;;4991997;28;20101;-47
2023/02/23 14:01:21;;;;;;;15.13;7.60;;;14.00;99.90;;;;;;4991826;28;20037;-43
2023/02/23 14:03:53;;;;;;;13.05;7.43;;;14.00;99.90;;;;;;4991963;28;20441;-43
2023/02/23 14:06:22;;;;;;;11.55;7.53;;;13.90;99.90;;;;;;4992620;28;20110;-48
2023/02/23 14:09:11;;;;;;;10.85;7.35;;;13.80;99.90;;;;;;4992608;28;20034;-45
2023/02/23 14:11:52;;;;;;;9.55;7.82;;;13.70;99.90;;;;;;4991806;28;20022;-50